Time;durP1;ratioP1;P1;durP2;ratioP2;P2;SDS_P1;SDS_P2;PMS_P1;PMS_P2;Temp;Humidity;BMP_temperature;BMP_pressure;BME280_temperature;BME280_humidity;BME280_pressure;Samples;Min_cycle;Max_cycle;Signal;HPM_P1;HPM_P2
2021/10/02 00:45:28;;;;;;;18.95;10.45;;;;;;;10.35;58.67;144799.75;1825950;77;22153;-59
2021/10/02 00:48:22;;;;;;;23.42;12.13;;;;;;;10.35;58.67;144799.75;1844590;77;22172;-63
2021/10/02 00:51:15;;;;;;;17.77;10.90;;;;;;;10.35;58.70;144799.75;1829458;77;22191;-62
2021/10/02 00:54:09;;;;;;;17.75;10.88;;;;;;;10.35;58.77;144799.75;1831093;77;22168;-59
2021/10/02 00:56:44;;;;;;;26.27;11.35;;;;;;;10.35;58.92;144799.75;1818304;77;22261;-60
2021/10/02 00:59:19;;;;;;;22.13;11.90;;;;;;;10.37;59.00;144804.78;1827281;77;22105;-61
2021/10/02 01:02:54;;;;;;;21.68;10.80;;;;;;;10.35;58.99;144799.75;1821346;77;22276;-63
2021/10/02 01:05:46;;;;;;;21.00;11.08;;;;;;;10.34;58.93;144797.25;1827253;77;22128;-58
2021/10/02 01:08:42;;;;;;;23.87;12.25;;;;;;;10.32;58.94;144792.23;1834958;77;20100;-59
2021/10/02 01:11:41;;;;;;;20.50;11.38;;;;;;;10.30;59.29;144787.22;1814898;77;22655;-61
2021/10/02 01:14:39;;;;;;;23.32;12.10;;;;;;;10.29;59.41;144784.72;1818547;77;28015;-64
2021/10/02 01:17:42;;;;;;;22.17;11.93;;;;;;;10.28;59.66;144783.47;1824476;77;22241;-61
2021/10/02 01:20:24;;;;;;;17.27;10.50;;;;;;;10.24;59.62;144772.12;1829375;77;22148;-59
2021/10/02 01:23:50;;;;;;;20.70;10.88;;;;;;;10.19;59.82;144760.84;1834922;77;22218;-57
2021/10/02 01:26:52;;;;;;;20.72;11.50;;;;;;;10.16;60.13;144753.33;1832196;77;22229;-60
2021/10/02 01:29:37;;;;;;;18.70;10.88;;;;;;;10.12;59.96;144744.53;1852481;77;22120;-64
2021/10/02 01:32:38;;;;;;;19.98;10.53;;;;;;;10.12;60.01;144744.53;1831458;77;22575;-56
2021/10/02 01:35:38;;;;;;;17.25;10.68;;;;;;;10.13;59.77;144745.81;1833584;77;22137;-61
2021/10/02 01:47:39;;;;;;;20.02;11.53;;;;;;;10.16;60.04;144753.33;1830466;77;22173;-60
2021/10/02 01:50:18;;;;;;;19.42;10.63;;;;;;;10.12;60.24;144743.28;1834936;77;22133;-58
2021/10/02 01:53:14;;;;;;;21.87;10.43;;;;;;;10.09;60.38;144737.00;1826290;77;22143;-63
2021/10/02 01:55:51;;;;;;;22.93;10.95;;;;;;;10.05;60.39;144727.00;1818923;77;22187;-63
2021/10/02 01:58:26;;;;;;;16.17;10.25;;;;;;;10.04;60.60;144724.47;1826120;77;22158;-61
2021/10/02 02:01:22;;;;;;;17.60;11.10;;;;;;;10.02;61.02;144718.20;1824979;77;22171;-63
2021/10/02 02:03:59;;;;;;;18.92;10.82;;;;;;;9.96;61.35;144704.42;1842407;77;22159;-60
2021/10/02 02:06:35;;;;;;;21.20;11.88;;;;;;;9.92;61.56;144694.38;1838250;77;22140;-62
2021/10/02 02:09:18;;;;;;;17.37;9.53;;;;;;;9.88;61.83;144684.38;1806042;77;22187;-61
2021/10/02 02:11:54;;;;;;;16.00;9.90;;;;;;;9.87;61.58;144681.84;1833862;77;22222;-66
2021/10/02 02:14:50;;;;;;;18.80;9.05;;;;;;;9.88;61.65;144685.63;1832321;77;22319;-64
2021/10/02 02:17:48;;;;;;;16.45;10.70;;;;;;;9.90;61.33;144689.41;1823628;77;22155;-65
2021/10/02 02:20:44;;;;;;;17.23;10.05;;;;;;;9.90;61.79;144689.41;1834351;77;22140;-58
2021/10/02 02:23:39;;;;;;;13.70;8.93;;;;;;;9.86;61.82;144679.36;1853430;77;22131;-62
2021/10/02 02:26:33;;;;;;;19.27;10.10;;;;;;;9.86;61.71;144679.36;1834227;77;22172;-63
2021/10/02 02:29:08;;;;;;;21.37;10.72;;;;;;;9.86;61.69;144680.59;1815911;77;28471;-63
2021/10/02 02:31:50;;;;;;;19.45;10.78;;;;;;;9.89;61.92;144686.86;1809329;77;22139;-63
2021/10/02 02:34:32;;;;;;;19.27;11.45;;;;;;;9.86;62.37;144679.36;1828108;77;22597;-62
2021/10/02 02:37:13;;;;;;;18.85;11.48;;;;;;;9.78;62.76;144661.80;1834085;77;22185;-59
2021/10/02 02:40:13;;;;;;;21.05;11.25;;;;;;;9.72;63.11;144646.78;1853316;77;22187;-63
2021/10/02 02:42:56;;;;;;;20.95;11.50;;;;;;;9.64;63.46;144626.73;1817651;77;22567;-62
2021/10/02 02:45:58;;;;;;;22.15;10.98;;;;;;;9.59;63.67;144614.16;1831546;77;22145;-62
2021/10/02 02:48:38;;;;;;;17.20;10.40;;;;;;;9.55;63.86;144604.16;1834931;77;22156;-58
2021/10/02 02:52:03;;;;;;;17.55;11.40;;;;;;;9.52;64.12;144597.89;1821949;77;22197;-61
2021/10/02 02:55:03;;;;;;;15.20;10.10;;;;;;;9.50;63.98;144591.63;1834995;77;22120;-60
2021/10/02 02:57:45;;;;;;;19.87;11.97;;;;;;;9.47;64.08;144584.11;1827234;77;22139;-63
2021/10/02 03:00:52;;;;;;;19.27;11.90;;;;;;;9.47;64.05;144585.36;1825615;77;22145;-59
2021/10/02 03:03:38;;;;;;;22.32;11.95;;;;;;;9.45;64.38;144579.09;1830916;77;22184;-60
2021/10/02 03:06:14;;;;;;;21.45;12.13;;;;;;;9.41;64.53;144569.05;1852516;77;22167;-61
2021/10/02 03:09:09;;;;;;;16.25;11.10;;;;;;;9.38;64.79;144561.53;1832187;77;22185;-62
2021/10/02 03:11:46;;;;;;;18.32;10.88;;;;;;;9.33;65.13;144551.50;1837750;77;28020;-57
2021/10/02 03:14:45;;;;;;;19.85;10.95;;;;;;;9.34;65.21;144552.78;1819312;77;38348;-60
2021/10/02 03:17:22;;;;;;;18.45;12.00;;;;;;;9.34;65.15;144554.03;1827600;77;22208;-61
2021/10/02 03:20:18;;;;;;;21.52;12.82;;;;;;;9.31;65.33;144546.53;1844073;77;22186;-63
2021/10/02 03:22:56;;;;;;;18.60;10.30;;;;;;;9.29;65.50;144541.50;1834888;77;22183;-62
2021/10/02 03:25:51;;;;;;;20.25;10.25;;;;;;;9.29;65.58;144541.50;1829189;77;22143;-64
2021/10/02 03:28:49;;;;;;;14.65;9.95;;;;;;;9.28;65.53;144538.97;1830473;77;22144;-60
2021/10/02 03:31:24;;;;;;;18.80;11.18;;;;;;;9.28;65.54;144537.72;1833568;77;22167;-59
2021/10/02 03:34:20;;;;;;;17.67;11.85;;;;;;;9.28;65.59;144538.97;1817449;77;38729;-60
2021/10/02 03:36:55;;;;;;;16.97;9.70;;;;;;;9.31;65.63;144545.23;1834966;77;22125;-63
2021/10/02 03:39:30;;;;;;;17.20;11.33;;;;;;;9.28;65.91;144538.97;1807427;77;28526;-63
2021/10/02 03:42:20;;;;;;;31.93;17.02;;;;;;;9.28;65.90;144538.97;1815495;77;22195;-62
2021/10/02 03:45:24;;;;;;;29.37;17.73;;;;;;;9.24;66.19;144528.97;1853412;77;22200;-61
2021/10/02 03:48:18;;;;;;;21.45;14.38;;;;;;;9.18;66.44;144513.91;1834970;77;22183;-60
2021/10/02 03:51:11;;;;;;;21.97;14.53;;;;;;;9.13;66.76;144501.39;1826817;77;22152;-63
2021/10/02 03:53:46;;;;;;;22.42;13.00;;;;;;;9.08;66.99;144488.86;1792829;77;22594;-63
2021/10/02 03:56:25;;;;;;;20.12;12.95;;;;;;;9.04;67.00;144480.11;1811573;77;22187;-65
2021/10/02 03:59:19;;;;;;;23.12;13.60;;;;;;;9.00;67.02;144470.06;1830186;77;22564;-64
2021/10/02 04:02:19;;;;;;;16.85;11.30;;;;;;;8.98;67.02;144463.81;1820281;77;22288;-65
2021/10/02 04:04:54;;;;;;;23.77;11.48;;;;;;;8.96;66.98;144458.83;1853491;77;22124;-63
2021/10/02 04:07:31;;;;;;;20.88;12.63;;;;;;;8.94;66.92;144455.06;1830290;77;22163;-65
2021/10/02 04:10:26;;;;;;;24.55;12.93;;;;;;;8.93;67.02;144452.58;1817567;77;22191;-60
2021/10/02 04:13:01;;;;;;;30.08;14.70;;;;;;;8.91;67.28;144448.80;1818953;77;22162;-63
2021/10/02 04:15:35;;;;;;;28.55;13.22;;;;;;;8.89;67.34;144443.78;1852507;77;22131;-59
2021/10/02 04:18:31;;;;;;;23.52;13.65;;;;;;;8.85;67.47;144433.78;1834518;77;22132;-58
2021/10/02 04:21:06;;;;;;;25.62;14.55;;;;;;;8.83;67.52;144428.77;1834983;77;22129;-62
2021/10/02 04:24:02;;;;;;;28.20;15.00;;;;;;;8.83;67.70;144428.77;1818445;77;22598;-63
2021/10/02 04:27:03;;;;;;;25.27;15.50;;;;;;;8.78;67.80;144415.00;1829977;77;22198;-60
2021/10/02 04:30:04;;;;;;;25.97;15.13;;;;;;;8.77;67.86;144412.47;1813894;77;22229;-61
2021/10/02 04:32:39;;;;;;;26.12;14.95;;;;;;;8.76;67.92;144409.98;1817437;77;22148;-63
2021/10/02 04:35:39;;;;;;;24.65;14.28;;;;;;;8.81;67.76;144423.75;1817010;77;22176;-62
2021/10/02 04:38:41;;;;;;;27.15;15.03;;;;;;;9.35;66.34;144556.52;1816602;77;22283;-61
2021/10/02 04:41:35;;;;;;;25.95;15.13;;;;;;;10.12;63.82;144744.53;1803017;77;28015;-61
2021/10/02 04:44:16;;;;;;;25.43;13.35;;;;;;;10.82;61.57;144916.41;1817859;77;22207;-62
2021/10/02 04:46:52;;;;;;;25.97;13.48;;;;;;;11.33;59.19;145040.63;1824190;77;22630;-62
2021/10/02 04:49:53;;;;;;;22.17;12.68;;;;;;;11.79;57.38;145153.59;1825546;77;22608;-60
2021/10/02 04:52:29;;;;;;;25.50;14.65;;;;;;;12.09;56.00;145226.48;1825214;77;22229;-62
2021/10/02 04:55:22;;;;;;;21.97;13.62;;;;;;;12.38;55.02;145298.05;1808187;77;22192;-60
2021/10/02 04:58:16;;;;;;;24.67;14.03;;;;;;;12.75;54.03;145389.77;1818130;77;22193;-64
2021/10/02 05:00:51;;;;;;;25.57;15.08;;;;;;;13.18;52.61;145494.08;1816435;77;22199;-62
2021/10/02 05:03:26;;;;;;;21.37;14.03;;;;;;;13.63;51.45;145605.97;1801321;77;28030;-66
2021/10/02 05:06:21;;;;;;;23.38;13.08;;;;;;;14.10;49.99;145721.67;1819592;77;22657;-63
2021/10/02 05:09:15;;;;;;;19.85;13.03;;;;;;;14.52;49.11;145824.81;1817365;77;22255;-63
2021/10/02 05:11:49;;;;;;;22.42;14.47;;;;;;;14.78;48.26;145886.52;1818956;77;22156;-65
2021/10/02 05:14:25;;;;;;;20.15;12.93;;;;;;;15.04;47.31;145950.73;1830941;77;22171;-62
2021/10/02 05:17:19;;;;;;;20.15;12.25;;;;;;;15.44;46.26;146048.89;1815482;77;22184;-64
2021/10/02 05:19:55;;;;;;;22.82;12.25;;;;;;;15.75;45.47;146125.78;1834858;77;22157;-63
2021/10/02 05:22:31;;;;;;;18.75;12.40;;;;;;;16.16;44.96;146226.53;1831659;77;22574;-67
2021/10/02 05:25:11;;;;;;;17.17;11.50;;;;;;;16.60;44.02;146336.13;1820056;77;22284;-67
2021/10/02 05:27:46;;;;;;;19.67;13.13;;;;;;;16.98;43.33;146429.44;1811424;77;22147;-66
2021/10/02 05:30:40;;;;;;;22.62;13.35;;;;;;;17.40;42.50;146532.78;1825362;77;22225;-69
2021/10/02 05:33:15;;;;;;;25.60;13.80;;;;;;;17.81;41.54;146633.75;1810135;77;22189;-63
2021/10/02 05:36:10;;;;;;;20.68;13.20;;;;;;;18.11;41.14;146706.88;1819081;77;22242;-67
2021/10/02 05:38:45;;;;;;;26.23;15.13;;;;;;;18.31;40.41;146757.34;1824571;77;22577;-65
2021/10/02 05:41:19;;;;;;;21.60;13.05;;;;;;;18.46;40.17;146793.94;1829579;77;22171;-64
2021/10/02 05:43:56;;;;;;;26.27;12.98;;;;;;;18.27;40.43;146745.98;1831029;77;22208;-67
2021/10/02 05:46:37;;;;;;;27.58;15.13;;;;;;;18.46;40.14;146792.69;1820285;77;22204;-68
2021/10/02 05:49:20;;;;;;;26.27;14.78;;;;;;;18.71;40.26;146855.78;1853473;77;22367;-64
2021/10/02 05:52:02;;;;;;;21.77;14.83;;;;;;;19.28;39.43;146995.94;1816787;77;22223;-65
2021/10/02 05:54:37;;;;;;;23.67;14.85;;;;;;;19.63;38.79;147083.06;1830704;77;28032;-65
2021/10/02 05:57:32;;;;;;;25.27;13.45;;;;;;;19.97;38.19;147166.47;1824705;77;22171;-65
2021/10/02 06:00:11;;;;;;;25.27;13.72;;;;;;;20.12;38.02;147204.41;1834691;77;22147;-65
2021/10/02 06:02:46;;;;;;;25.72;14.35;;;;;;;20.25;37.94;147234.69;1821375;77;22631;-67
2021/10/02 06:05:39;;;;;;;22.70;12.60;;;;;;;20.40;37.46;147272.59;1836525;77;22227;-63
2021/10/02 06:08:20;;;;;;;26.87;13.65;;;;;;;20.13;37.66;147206.91;1853463;77;22166;-62
2021/10/02 06:10:56;;;;;;;20.52;13.55;;;;;;;20.06;37.52;147189.22;1832649;77;22195;-70
2021/10/02 06:13:37;;;;;;;21.45;13.95;;;;;;;19.67;38.30;147093.23;1834100;77;22194;-62
2021/10/02 06:16:32;;;;;;;26.85;13.58;;;;;;;19.33;38.79;147007.31;1821631;77;22171;-67
2021/10/02 06:19:26;;;;;;;23.42;14.85;;;;;;;19.73;38.75;147108.37;1819259;77;22637;-65
2021/10/02 06:22:07;;;;;;;25.52;13.55;;;;;;;20.12;38.26;147203.11;1819845;77;22199;-65
2021/10/02 06:24:42;;;;;;;24.43;13.75;;;;;;;20.57;37.83;147314.36;1830001;77;22139;-67
2021/10/02 06:27:23;;;;;;;24.47;12.70;;;;;;;20.83;37.40;147377.55;1807162;77;22568;-66
2021/10/02 06:29:58;;;;;;;23.67;13.08;;;;;;;21.42;36.36;147525.53;1810698;77;22231;-62
2021/10/02 06:32:34;;;;;;;23.40;12.53;;;;;;;21.49;36.28;147541.94;1795384;77;28258;-69
2021/10/02 06:35:09;;;;;;;26.80;11.25;;;;;;;21.62;36.41;147573.56;1808893;77;22143;-65
2021/10/02 06:38:03;;;;;;;20.95;11.63;;;;;;;21.81;36.21;147621.63;1839077;77;22594;-63
2021/10/02 06:40:57;;;;;;;24.12;11.95;;;;;;;21.97;35.84;147659.58;1810762;77;22223;-66
2021/10/02 06:43:52;;;;;;;21.93;11.08;;;;;;;21.91;35.92;147644.41;1831576;77;22214;-66
2021/10/02 06:46:27;;;;;;;23.85;11.40;;;;;;;21.89;36.13;147641.86;1829288;77;22619;-65
2021/10/02 06:49:07;;;;;;;19.73;11.63;;;;;;;21.88;35.76;147639.34;1824004;77;22225;-71
2021/10/02 06:51:43;;;;;;;27.40;13.20;;;;;;;21.69;35.74;147591.27;1790767;77;28502;-68
2021/10/02 06:54:18;;;;;;;24.12;12.30;;;;;;;21.53;36.44;147550.81;1824411;77;22346;-70
2021/10/02 06:56:54;;;;;;;20.88;11.40;;;;;;;21.60;36.58;147568.48;1814078;77;22249;-63
2021/10/02 06:59:35;;;;;;;23.07;10.98;;;;;;;21.99;36.11;147664.66;1831675;77;22202;-64
2021/10/02 07:02:11;;;;;;;28.02;11.05;;;;;;;22.33;35.35;147750.69;1818688;77;22224;-71
2021/10/02 07:05:10;;;;;;;20.90;11.45;;;;;;;22.20;35.04;147716.55;1830645;77;22144;-63
2021/10/02 07:08:10;;;;;;;19.57;12.00;;;;;;;21.48;36.30;147538.17;1834298;77;22361;-68
2021/10/02 07:10:45;;;;;;;20.10;12.28;;;;;;;21.10;36.59;147444.56;1842190;77;22620;-67
2021/10/02 07:13:21;;;;;;;20.95;11.12;;;;;;;21.10;36.71;147444.56;1818789;77;22277;-67
2021/10/02 07:15:55;;;;;;;23.75;11.73;;;;;;;20.90;36.63;147396.50;1815633;77;22163;-68
2021/10/02 07:18:30;;;;;;;24.75;12.50;;;;;;;20.62;37.75;147325.75;1819087;77;22322;-64
2021/10/02 07:21:11;;;;;;;25.57;12.10;;;;;;;20.45;37.75;147285.22;1828246;77;22189;-66
2021/10/02 07:23:47;;;;;;;24.92;11.22;;;;;;;20.32;38.16;147252.39;1825726;77;22225;-70
2021/10/02 07:26:22;;;;;;;20.70;12.50;;;;;;;20.52;38.17;147302.94;1815947;77;22219;-65
2021/10/02 07:28:59;;;;;;;19.20;10.43;;;;;;;21.33;37.68;147502.70;1813022;77;22620;-71
2021/10/02 07:31:40;;;;;;;21.48;11.25;;;;;;;22.23;35.90;147724.13;1811961;77;22629;-64
2021/10/02 07:34:34;;;;;;;20.48;11.33;;;;;;;22.60;34.95;147816.52;1839915;77;22120;-68
2021/10/02 07:37:14;;;;;;;17.65;10.30;;;;;;;23.27;33.74;147982.38;1834033;77;22192;-62
2021/10/02 07:39:49;;;;;;;27.00;9.65;;;;;;;23.58;32.63;148059.64;1834940;77;22294;-64
2021/10/02 07:42:26;;;;;;;26.62;11.28;;;;;;;23.42;32.11;148019.09;1819174;77;28013;-65
2021/10/02 07:45:09;;;;;;;16.10;8.08;;;;;;;23.19;32.91;147962.12;1832767;77;22243;-65
2021/10/02 07:47:45;;;;;;;16.97;8.63;;;;;;;22.93;32.36;147898.78;1816699;77;22560;-72
2021/10/02 07:50:23;;;;;;;16.52;8.65;;;;;;;22.73;32.72;147849.41;1832656;77;22147;-69
2021/10/02 07:53:18;;;;;;;16.93;9.55;;;;;;;23.21;32.67;147965.94;1814709;77;22205;-72
2021/10/02 07:55:54;;;;;;;17.37;8.78;;;;;;;23.54;32.06;148049.50;1824580;77;22251;-70
2021/10/02 07:58:30;;;;;;;22.02;9.13;;;;;;;23.53;31.89;148045.67;1825708;77;22322;-69
2021/10/02 08:01:12;;;;;;;19.75;9.78;;;;;;;23.46;33.44;148027.94;1834026;77;22146;-73
2021/10/02 08:03:53;;;;;;;16.48;9.00;;;;;;;23.52;32.76;148044.41;1815091;77;22183;-65
2021/10/02 08:06:31;;;;;;;19.25;9.15;;;;;;;23.31;33.03;147991.25;1825136;77;22660;-73
2021/10/02 08:09:05;;;;;;;16.37;8.38;;;;;;;23.92;32.93;148143.27;1826407;77;20115;-69
2021/10/02 08:11:42;;;;;;;14.03;7.55;;;;;;;23.84;30.48;148123.00;1814914;77;22190;-73
2021/10/02 08:14:23;;;;;;;12.75;7.25;;;;;;;22.80;31.89;147865.88;1832193;77;22476;-65
2021/10/02 08:17:00;;;;;;;13.93;8.05;;;;;;;22.09;32.77;147691.20;1808377;77;22125;-69
2021/10/02 08:19:37;;;;;;;13.00;7.33;;;;;;;21.42;33.42;147524.23;1807387;77;27965;-65
2021/10/02 08:22:13;;;;;;;14.60;8.28;;;;;;;20.95;33.27;147409.16;1813502;77;22295;-68
2021/10/02 08:25:09;;;;;;;9.58;6.53;;;;;;;20.64;35.38;147332.06;1838806;77;22373;-61
2021/10/02 08:28:10;;;;;;;14.50;6.62;;;;;;;20.44;34.86;147282.72;1815695;77;22381;-69
2021/10/02 08:30:48;;;;;;;10.60;6.33;;;;;;;20.24;36.29;147232.19;1832018;77;22163;-68
2021/10/02 08:33:43;;;;;;;11.85;6.80;;;;;;;20.52;35.23;147301.67;1805343;77;22210;-64
2021/10/02 08:36:19;;;;;;;12.30;7.50;;;;;;;20.14;35.24;147208.17;1817264;77;27989;-63
2021/10/02 08:39:15;;;;;;;14.53;7.37;;;;;;;19.73;36.13;147108.37;1823910;77;22190;-66
2021/10/02 08:42:10;;;;;;;15.00;6.85;;;;;;;19.27;37.64;146994.69;1825660;77;27921;-66
2021/10/02 08:44:52;;;;;;;12.65;7.50;;;;;;;19.13;37.22;146959.31;1811416;77;22226;-65
2021/10/02 08:47:53;;;;;;;13.05;6.80;;;;;;;18.85;37.06;146891.19;1912862;74;22162;-65
2021/10/02 08:50:28;;;;;;;13.32;6.67;;;;;;;18.49;38.89;146801.50;1837707;77;28179;-64
2021/10/02 08:53:12;;;;;;;16.95;7.65;;;;;;;18.49;38.76;146801.50;1848015;77;22630;-63
2021/10/02 08:56:04;;;;;;;14.93;8.18;;;;;;;17.86;38.75;146646.38;1834957;77;22129;-66
2021/10/02 08:58:47;;;;;;;13.75;8.10;;;;;;;17.39;40.05;146529.03;1853546;77;22194;-67
2021/10/02 09:01:22;;;;;;;24.63;8.40;;;;;;;16.95;41.73;146421.88;1852841;77;22200;-66
2021/10/02 09:04:17;;;;;;;14.18;7.92;;;;;;;16.67;42.28;146353.77;1851646;77;22170;-69
2021/10/02 09:06:53;;;;;;;15.65;7.08;;;;;;;16.52;41.82;146315.97;1818848;77;22708;-62
2021/10/02 09:09:55;;;;;;;21.90;7.17;;;;;;;16.26;42.09;146251.72;1833768;77;22167;-61
2021/10/02 09:12:41;;;;;;;12.68;7.37;;;;;;;16.20;43.05;146236.58;1853938;77;22195;-65
2021/10/02 09:15:35;;;;;;;16.23;6.78;;;;;;;16.13;42.44;146220.23;1821278;77;22166;-69
2021/10/02 09:18:11;;;;;;;11.93;6.25;;;;;;;15.96;42.28;146177.41;1817791;77;22287;-68
2021/10/02 09:20:59;;;;;;;11.35;6.50;;;;;;;15.69;43.75;146111.89;1821399;77;22215;-63
2021/10/02 09:23:53;;;;;;;11.40;6.30;;;;;;;15.33;44.26;146022.47;1821661;77;22167;-71
2021/10/02 09:26:45;;;;;;;13.72;7.50;;;;;;;15.37;44.71;146033.80;1818001;77;22145;-68
2021/10/02 09:29:40;;;;;;;16.50;7.20;;;;;;;15.24;44.83;146001.08;1814322;77;22191;-69
2021/10/02 09:32:18;;;;;;;17.92;7.35;;;;;;;15.38;45.51;146036.30;1829266;77;22151;-69
2021/10/02 09:35:17;;;;;;;19.25;7.72;;;;;;;15.35;45.45;146028.75;1825158;77;22617;-64
2021/10/02 09:37:53;;;;;;;13.90;8.48;;;;;;;15.18;45.17;145987.19;1827455;77;22615;-62
2021/10/02 09:40:32;;;;;;;14.53;8.50;;;;;;;15.06;45.79;145955.72;1810494;77;22605;-64
2021/10/02 09:43:33;;;;;;;17.17;7.75;;;;;;;15.29;47.07;146013.67;1832620;77;22228;-69
2021/10/02 09:46:35;;;;;;;15.60;7.42;;;;;;;15.52;45.90;146069.02;1834765;77;22165;-64
2021/10/02 09:49:10;;;;;;;18.85;9.08;;;;;;;15.44;45.59;146050.12;1834701;77;22144;-69
2021/10/02 09:51:46;;;;;;;75.03;46.77;;;;;;;15.35;46.31;146028.75;1825461;77;22615;-65
2021/10/02 09:54:40;;;;;;;20.97;10.82;;;;;;;15.27;45.77;146007.37;1816968;78;22152;-67
2021/10/02 09:57:40;;;;;;;18.35;8.58;;;;;;;15.15;47.06;145979.66;1853327;77;22570;-69
2021/10/02 10:00:20;;;;;;;18.37;8.15;;;;;;;15.35;46.48;146028.75;1832784;77;22655;-69
2021/10/02 10:02:56;;;;;;;17.62;8.48;;;;;;;15.36;46.17;146031.25;1800107;77;22626;-66
2021/10/02 10:05:36;;;;;;;14.98;7.35;;;;;;;15.47;46.73;146057.72;1803614;77;22162;-68
2021/10/02 10:08:30;;;;;;;18.57;7.95;;;;;;;15.46;46.12;146053.94;1811343;77;22633;-72
2021/10/02 10:11:12;;;;;;;19.65;8.65;;;;;;;15.32;46.69;146021.20;1829028;77;22565;-69
2021/10/02 10:13:52;;;;;;;17.90;7.92;;;;;;;15.49;46.87;146062.72;1819559;77;22168;-69
2021/10/02 10:16:38;;;;;;;14.55;8.23;;;;;;;15.54;47.39;146074.06;1816158;77;22601;-73
2021/10/02 10:19:38;;;;;;;19.00;8.08;;;;;;;15.56;46.43;146079.11;1828479;77;22598;-70
2021/10/02 10:22:32;;;;;;;14.35;8.85;;;;;;;15.58;47.00;146085.41;1834823;77;22559;-69
2021/10/02 10:25:33;;;;;;;20.75;8.03;;;;;;;15.56;47.46;146080.36;1823708;77;22234;-65
2021/10/02 10:28:31;;;;;;;13.90;7.47;;;;;;;15.81;46.10;146142.13;1818775;77;22191;-65
2021/10/02 10:31:27;;;;;;;13.70;7.65;;;;;;;15.68;45.38;146109.34;1815133;77;22196;-70
2021/10/02 10:34:03;;;;;;;12.00;7.10;;;;;;;15.65;45.75;146101.80;1818947;77;22172;-67
2021/10/02 10:36:57;;;;;;;19.23;9.70;;;;;;;15.81;45.89;146140.88;1817570;77;22196;-67
2021/10/02 10:39:35;;;;;;;13.30;7.83;;;;;;;15.86;45.98;146153.47;1804244;77;28100;-69
2021/10/02 10:42:10;;;;;;;16.07;7.70;;;;;;;16.04;47.29;146197.53;1820603;77;22547;-67
2021/10/02 10:45:11;;;;;;;12.80;6.50;;;;;;;16.48;44.15;146305.87;1811925;77;22215;-68
2021/10/02 10:47:45;;;;;;;11.50;6.15;;;;;;;16.35;44.07;146274.38;1834759;77;22125;-72
2021/10/02 10:50:43;;;;;;;10.78;5.72;;;;;;;16.18;44.39;146232.83;1841684;77;22550;-66
2021/10/02 10:53:47;;;;;;;9.58;5.90;;;;;;;16.03;44.91;146196.28;1824533;77;22224;-66
2021/10/02 10:56:49;;;;;;;12.80;6.75;;;;;;;15.93;45.26;146169.84;1819748;77;22167;-67
2021/10/02 10:59:49;;;;;;;10.00;5.28;;;;;;;15.80;45.16;146139.63;1828296;77;22218;-63
2021/10/02 11:02:45;;;;;;;10.13;6.00;;;;;;;15.91;45.66;146164.81;1817871;77;22176;-69
2021/10/02 11:05:43;;;;;;;11.93;5.30;;;;;;;15.89;45.04;146159.75;1817534;77;22225;-71
2021/10/02 11:08:20;;;;;;;8.73;5.45;;;;;;;15.79;44.96;146137.06;1816683;77;22144;-70
2021/10/02 11:10:56;;;;;;;9.85;5.58;;;;;;;15.80;44.96;146139.63;1816743;77;22598;-68
2021/10/02 11:13:50;;;;;;;15.40;5.12;;;;;;;15.91;44.97;146164.81;1825829;77;22701;-69
2021/10/02 11:16:40;;;;;;;12.33;4.47;;;;;;;15.91;44.32;146166.06;1791378;77;22683;-63
2021/10/02 11:19:39;;;;;;;10.78;4.40;;;;;;;15.90;43.83;146162.25;1814307;77;22180;-63
2021/10/02 11:25:42;;;;;;;9.73;5.20;;;;;;;16.00;44.45;146187.45;1833722;77;22607;-64
2021/10/02 11:28:28;;;;;;;11.05;5.03;;;;;;;15.98;43.64;146182.44;1826558;77;22183;-63
2021/10/02 11:31:25;;;;;;;13.45;6.03;;;;;;;15.88;43.58;146157.25;1834620;77;22624;-63
2021/10/02 11:34:23;;;;;;;9.20;5.47;;;;;;;15.93;43.93;146171.09;1853298;77;22167;-65
2021/10/02 11:36:58;;;;;;;14.23;5.78;;;;;;;16.01;44.23;146191.25;1834432;77;22160;-64
2021/10/02 11:39:52;;;;;;;9.78;5.10;;;;;;;16.15;44.45;146225.23;1834323;77;22180;-63
2021/10/02 11:42:28;;;;;;;8.98;5.05;;;;;;;16.21;44.18;146240.38;1837497;77;27975;-66
2021/10/02 11:45:04;;;;;;;10.68;5.42;;;;;;;16.24;42.82;146247.94;1853281;77;22219;-65
2021/10/02 11:47:39;;;;;;;9.80;5.60;;;;;;;16.23;43.21;146244.13;1827855;77;20229;-61
2021/10/02 11:50:35;;;;;;;9.70;5.47;;;;;;;16.06;43.73;146203.84;1799618;77;28040;-65
2021/10/02 11:53:18;;;;;;;7.67;5.15;;;;;;;16.08;43.20;146207.64;1834744;77;22164;-63
2021/10/02 11:55:55;;;;;;;8.70;4.28;;;;;;;16.13;42.75;146220.23;1834797;77;22571;-65
2021/10/02 11:58:53;;;;;;;11.80;6.22;;;;;;;16.22;41.82;146242.88;1834271;77;22642;-65
2021/10/02 12:01:32;;;;;;;14.58;6.28;;;;;;;16.28;43.07;146258.03;1846123;77;22120;-64
2021/10/02 12:04:12;;;;;;;10.25;5.25;;;;;;;16.33;43.51;146268.06;1834614;77;22183;-64
2021/10/02 12:06:47;;;;;;;10.00;4.85;;;;;;;16.25;42.00;146249.17;1853194;77;22156;-65
2021/10/02 12:09:55;;;;;;;8.30;4.72;;;;;;;16.14;42.49;146222.73;1847971;77;22194;-66
2021/10/02 12:12:31;;;;;;;7.72;4.30;;;;;;;16.16;42.35;146227.78;1834117;77;23258;-62
2021/10/02 12:15:07;;;;;;;7.40;4.37;;;;;;;16.24;42.13;146247.94;1834964;77;22560;-62
2021/10/02 12:18:02;;;;;;;7.50;4.60;;;;;;;16.28;41.11;146258.03;1834782;77;22136;-63
2021/10/02 12:21:01;;;;;;;8.88;4.45;;;;;;;16.27;41.66;146254.22;1853486;77;22139;-62
2021/10/02 12:24:12;;;;;;;11.12;5.17;;;;;;;16.29;42.51;146259.28;1834915;77;22132;-66
2021/10/02 12:27:07;;;;;;;11.60;5.90;;;;;;;16.35;42.65;146274.38;1853521;77;22581;-65
2021/10/02 12:29:52;;;;;;;10.10;5.37;;;;;;;16.26;42.92;146252.97;1834986;77;22136;-63
2021/10/02 12:32:33;;;;;;;11.18;4.78;;;;;;;16.31;43.05;146263.03;1853454;77;22653;-65
2021/10/02 12:35:33;;;;;;;15.45;5.12;;;;;;;16.50;42.73;146310.92;1834122;77;22188;-63
2021/10/02 12:38:08;;;;;;;8.28;4.85;;;;;;;16.71;43.10;146363.88;1834975;77;22160;-64
2021/10/02 12:41:02;;;;;;;10.43;4.87;;;;;;;16.85;43.19;146396.67;1834925;77;22128;-64
2021/10/02 12:43:37;;;;;;;10.95;4.80;;;;;;;16.71;42.59;146363.88;1853496;77;22131;-61
2021/10/02 12:46:18;;;;;;;7.95;4.78;;;;;;;16.71;42.87;146362.58;1834958;77;22132;-63
2021/10/02 12:48:53;;;;;;;8.35;4.70;;;;;;;16.68;42.06;146356.27;1834959;77;22128;-61
2021/10/02 12:51:48;;;;;;;9.90;4.83;;;;;;;16.66;42.38;146351.27;1835050;77;22129;-62
2021/10/02 12:54:27;;;;;;;11.93;5.15;;;;;;;16.69;42.02;146358.81;1819353;77;28420;-63
2021/10/02 12:57:38;;;;;;;10.35;4.67;;;;;;;16.68;42.55;146355.02;1853503;77;22137;-63
2021/10/02 13:00:33;;;;;;;9.28;4.62;;;;;;;16.75;42.33;146371.42;1834971;77;22124;-63
2021/10/02 13:03:29;;;;;;;7.45;4.55;;;;;;;16.63;42.01;146342.42;1853509;77;22554;-63
2021/10/02 13:06:04;;;;;;;9.95;5.17;;;;;;;16.50;41.96;146312.17;1819357;77;28426;-64
2021/10/02 13:08:39;;;;;;;9.18;4.70;;;;;;;16.49;42.31;146309.66;1853529;77;22152;-63
2021/10/02 13:11:30;;;;;;;8.00;4.35;;;;;;;16.38;41.62;146280.67;1834153;77;22188;-63
2021/10/02 13:14:31;;;;;;;7.33;4.15;;;;;;;16.25;41.91;146249.17;1834853;77;22149;-62
2021/10/02 13:17:10;;;;;;;8.60;4.20;;;;;;;16.17;42.13;146230.28;1804781;77;22184;-62
2021/10/02 13:20:13;;;;;;;11.18;4.80;;;;;;;16.05;41.84;146201.34;1834932;77;22140;-62
2021/10/02 13:23:17;;;;;;;10.48;4.12;;;;;;;16.10;42.33;146212.64;1853534;77;22132;-63
2021/10/02 13:26:03;;;;;;;8.08;4.35;;;;;;;16.15;41.89;146225.23;1853501;77;22131;-63
2021/10/02 13:28:50;;;;;;;7.42;3.90;;;;;;;16.21;42.31;146240.38;1834119;77;22132;-66
2021/10/02 13:31:44;;;;;;;10.32;4.92;;;;;;;16.15;42.25;146225.23;1834966;77;22132;-63
2021/10/02 13:34:53;;;;;;;11.80;4.92;;;;;;;16.12;42.92;146217.69;1834921;77;22128;-62
2021/10/02 13:37:29;;;;;;;10.05;5.10;;;;;;;16.13;42.82;146218.94;1853470;77;22127;-62
2021/10/02 13:40:48;;;;;;;10.25;5.37;;;;;;;16.21;42.46;146240.38;1834010;77;22173;-66